Weather at Golden Triangle Regional Airport

Public forecast

Using degrees Fahrenheit for public forecast. Weather courtesy of forecast.io.

Current aviation weather report (METAR) for Golden Triangle Regional Airport

Retrieved 2021/01/19 20:40 UTC (0 seconds ago):

KGTR 192040Z 33006KT 10SM -RA BKN026 OVC035 10/09 A3032 RMK AO2 RAE21B39 P0000

Aviation forecast (TAF) for Golden Triangle Regional Airport

Retrieved 2021/01/19 18:30 UTC (2 hours ago):

TAF KGTR 191726Z 1918/2018 16005KT P6SM -RA FEW025 OVC050 FM200000 VRB03KT P6SM -RA BKN025 OVC050 FM200700 33006KT P6SM BKN080